Time;durP1;ratioP1;P1;durP2;ratioP2;P2;SDS_P1;SDS_P2;PMS_P1;PMS_P2;Temp;Humidity;BMP_temperature;BMP_pressure;BME280_temperature;BME280_humidity;BME280_pressure;Samples;Min_cycle;Max_cycle;Signal;HPM_P1;HPM_P2
2022/05/06 00:01:44;;;;;;;0.40;0.20;;;;;;;15.30;52.84;100783.11;104000;1279;140466;-76
2022/05/06 00:04:14;;;;;;;0.40;0.20;;;;;;;15.29;52.94;100777.79;104037;1279;110104;-76
2022/05/06 00:06:42;;;;;;;0.40;0.20;;;;;;;15.30;53.02;100779.87;104074;1279;141688;-79
2022/05/06 00:09:10;;;;;;;0.40;0.20;;;;;;;15.31;53.26;100778.19;104012;1279;95291;-78
2022/05/06 00:11:38;;;;;;;0.40;0.20;;;;;;;15.32;53.03;100778.16;104052;1279;110156;-79
2022/05/06 00:14:05;;;;;;;0.40;0.20;;;;;;;15.40;53.18;100774.48;104050;1279;139763;-76
2022/05/06 00:16:35;;;;;;;0.40;0.20;;;;;;;15.39;53.24;100778.63;104063;1279;107825;-76
2022/05/06 00:19:02;;;;;;;0.40;0.20;;;;;;;15.35;53.37;100776.61;103943;1279;140546;-78
2022/05/06 00:21:30;;;;;;;0.40;0.20;;;;;;;15.33;53.69;100771.90;104056;1279;95137;-76
2022/05/06 00:23:58;;;;;;;0.40;0.20;;;;;;;15.34;53.75;100770.03;104033;1279;110405;-75
2022/05/06 00:26:32;;;;;;;0.40;0.20;;;;;;;15.37;53.77;100767.80;103932;1279;140874;-81
2022/05/06 00:29:00;;;;;;;0.40;0.20;;;;;;;15.43;53.89;100769.55;104032;1279;110080;-77
2022/05/06 00:31:28;;;;;;;0.40;0.20;;;;;;;15.45;53.94;100767.48;103960;1279;139961;-78
2022/05/06 00:33:56;;;;;;;0.40;0.20;;;;;;;15.48;53.98;100766.80;104110;1279;95470;-81
2022/05/06 00:36:23;;;;;;;0.40;0.20;;;;;;;15.47;54.14;100762.52;103950;1279;140402;-76
2022/05/06 00:38:51;;;;;;;0.40;0.20;;;;;;;15.48;54.23;100766.43;104026;1279;99846;-76
2022/05/06 00:41:19;;;;;;;0.40;0.20;;;;;;;15.51;54.37;100767.75;104025;1279;107406;-76
2022/05/06 00:43:47;;;;;;;0.40;0.20;;;;;;;15.55;54.11;100766.17;104023;1279;141125;-75
2022/05/06 00:46:15;;;;;;;0.40;0.20;;;;;;;15.57;54.27;100766.80;104001;1279;95529;-75
2022/05/06 00:48:47;;;;;;;0.40;0.20;;;;;;;15.73;53.93;100768.29;103952;1279;139412;-76
2022/05/06 00:51:20;;;;;;;0.40;0.20;;;;;;;15.90;53.56;100771.16;103991;1279;99980;-76
2022/05/06 00:53:48;;;;;;;0.40;0.20;;;;;;;15.96;53.41;100771.48;104060;1279;107963;-77
2022/05/06 00:56:17;;;;;;;0.40;0.20;;;;;;;15.95;53.42;100777.07;103847;1279;138887;-75
2022/05/06 00:58:45;;;;;;;0.40;0.20;;;;;;;15.90;53.62;100775.66;104388;1279;95921;-77
2022/05/06 01:01:14;;;;;;;0.40;0.20;;;;;;;15.85;53.78;100777.30;103907;1281;139642;-76
2022/05/06 01:03:42;;;;;;;0.40;0.20;;;;;;;15.77;54.08;100776.01;104079;1279;98653;-75
2022/05/06 01:06:13;;;;;;;0.40;0.20;;;;;;;15.62;54.36;100775.38;103969;1279;109299;-77
2022/05/06 01:08:44;;;;;;;0.40;0.20;;;;;;;15.58;54.65;100778.59;104005;1279;95387;-76
2022/05/06 01:11:13;;;;;;;0.40;0.20;;;;;;;15.61;54.73;100782.38;104042;1279;95354;-77
2022/05/06 01:13:44;;;;;;;0.40;0.20;;;;;;;15.66;54.55;100784.67;104087;1279;138384;-86
2022/05/06 01:16:21;;;;;;;0.40;0.20;;;;;;;15.66;54.59;100783.08;104310;1279;98427;-76
2022/05/06 01:18:55;;;;;;;0.40;0.20;;;;;;;15.68;54.61;100790.31;103740;1279;143342;-76
2022/05/06 01:21:26;;;;;;;0.40;0.20;;;;;;;15.63;54.83;100788.58;104051;1279;95874;-75
2022/05/06 01:23:54;;;;;;;0.40;0.20;;;;;;;15.61;54.94;100786.48;104036;1278;95799;-76
2022/05/06 01:26:22;;;;;;;0.40;0.20;;;;;;;15.76;54.82;100787.32;103934;1279;139706;-76
2022/05/06 01:28:51;;;;;;;0.40;0.10;;;;;;;15.84;54.68;100782.88;104063;1279;99787;-77
2022/05/06 01:31:21;;;;;;;0.40;0.20;;;;;;;15.83;54.85;100784.18;103898;1279;140647;-77
2022/05/06 01:33:55;;;;;;;0.40;0.20;;;;;;;15.75;55.21;100784.31;103884;1279;95594;-83
2022/05/06 01:36:27;;;;;;;0.40;0.20;;;;;;;15.71;55.37;100779.98;104062;1279;140295;-77
2022/05/06 01:39:00;;;;;;;0.40;0.20;;;;;;;15.86;54.93;100780.85;103864;1280;110207;-76
2022/05/06 01:41:31;;;;;;;0.40;0.20;;;;;;;15.98;54.44;100783.17;104129;1279;99998;-76
2022/05/06 01:44:09;;;;;;;0.40;0.10;;;;;;;16.03;54.72;100776.89;103744;1279;139907;-76
2022/05/06 01:46:38;;;;;;;0.40;0.10;;;;;;;16.06;54.98;100783.77;104023;1279;95231;-80
2022/05/06 01:49:11;;;;;;;0.40;0.20;;;;;;;16.05;55.01;100781.48;103888;1281;140421;-76
2022/05/06 01:51:41;;;;;;;0.40;0.20;;;;;;;15.93;55.63;100791.09;103983;1281;110274;-76
2022/05/06 01:54:12;;;;;;;0.40;0.20;;;;;;;15.90;55.64;100791.40;104339;1279;99884;-75
2022/05/06 01:56:45;;;;;;;0.40;0.20;;;;;;;15.96;55.68;100790.96;103997;1279;140245;-78
2022/05/06 01:59:14;;;;;;;0.40;0.20;;;;;;;15.96;56.03;100792.61;104031;1279;95267;-80
2022/05/06 02:01:42;;;;;;;0.40;0.20;;;;;;;15.88;56.25;100791.14;103989;1279;140097;-76
2022/05/06 02:07:03;;;;;;;0.40;0.20;;;;;;;15.73;57.08;100795.13;103861;1279;141901;-78
2022/05/06 02:09:31;;;;;;;0.40;0.20;;;;;;;15.66;57.45;100787.01;104135;1279;105764;-78
2022/05/06 02:12:02;;;;;;;0.40;0.10;;;;;;;15.71;57.42;100793.96;103966;1279;95728;-76
2022/05/06 02:14:50;;;;;;;0.40;0.20;;;;;;;15.71;57.51;100785.35;104101;1279;95650;-77
2022/05/06 02:17:37;;;;;;;0.40;0.20;;;;;;;15.79;57.44;100794.55;103853;1279;110199;-76
2022/05/06 02:20:17;;;;;;;0.40;0.20;;;;;;;15.87;57.39;100801.02;104039;1279;140728;-77
2022/05/06 02:23:17;;;;;;;0.40;0.20;;;;;;;15.92;57.22;100799.23;103518;1279;108531;-75
2022/05/06 02:26:03;;;;;;;0.40;0.10;;;;;;;15.91;57.54;100794.77;103923;1279;140130;-76
2022/05/06 02:28:45;;;;;;;0.40;0.20;;;;;;;15.81;57.98;100791.09;103835;1281;95679;-77
2022/05/06 02:33:59;;;;;;;0.40;0.10;;;;;;;15.82;58.06;100792.96;104134;1279;99772;-76
2022/05/06 02:36:38;;;;;;;0.40;0.10;;;;;;;15.79;58.17;100790.57;103933;1279;140493;-76
2022/05/06 02:39:06;;;;;;;0.40;0.10;;;;;;;15.80;58.12;100790.20;104027;1279;95732;-76
2022/05/06 02:41:35;;;;;;;0.40;0.20;;;;;;;15.84;58.26;100792.23;104079;1279;97378;-78
2022/05/06 02:44:04;;;;;;;0.40;0.20;;;;;;;15.84;58.31;100793.65;103979;1279;140564;-83
2022/05/06 02:46:37;;;;;;;0.40;0.20;;;;;;;15.82;58.50;100790.31;104300;1279;99920;-77
2022/05/06 02:49:05;;;;;;;0.40;0.20;;;;;;;15.75;58.71;100790.60;104153;1279;140037;-80
2022/05/06 02:51:33;;;;;;;0.40;0.10;;;;;;;15.82;58.61;100797.10;104100;1279;95284;-79
2022/05/06 02:54:02;;;;;;;0.40;0.10;;;;;;;15.82;58.67;100795.33;104109;1279;95288;-76
2022/05/06 02:56:33;;;;;;;0.40;0.10;;;;;;;15.79;58.83;100797.40;104162;1279;140671;-77
2022/05/06 02:59:04;;;;;;;0.40;0.20;;;;;;;15.90;58.41;100795.35;104138;1279;99958;-77
2022/05/06 03:01:34;;;;;;;0.40;0.20;;;;;;;16.03;58.02;100796.05;104105;1279;141360;-77
2022/05/06 03:04:06;;;;;;;0.40;0.20;;;;;;;16.13;57.63;100794.57;104106;1279;95851;-78
2022/05/06 03:06:33;;;;;;;0.40;0.20;;;;;;;16.18;57.48;100796.48;104097;1279;140263;-78
2022/05/06 03:09:02;;;;;;;0.40;0.10;;;;;;;16.23;57.69;100799.69;103996;1280;109479;-76
2022/05/06 03:11:33;;;;;;;0.40;0.10;;;;;;;16.16;57.81;100802.14;104129;1279;99215;-79
2022/05/06 03:14:06;;;;;;;0.40;0.10;;;;;;;16.11;57.94;100801.80;104123;1279;139709;-80
2022/05/06 03:16:40;;;;;;;0.40;0.10;;;;;;;16.17;58.13;100804.59;104183;1279;95889;-78
2022/05/06 03:19:08;;;;;;;0.40;0.10;;;;;;;16.14;58.02;100805.25;104127;1279;140824;-77
2022/05/06 03:21:36;;;;;;;0.40;0.20;;;;;;;16.25;57.59;100804.64;104205;1279;110257;-79
2022/05/06 03:24:04;;;;;;;0.40;0.20;;;;;;;16.29;57.67;100806.59;104121;1279;99851;-81
2022/05/06 03:26:32;;;;;;;0.40;0.10;;;;;;;16.30;57.44;100805.33;103970;1279;139831;-75
2022/05/06 03:29:00;;;;;;;0.40;0.20;;;;;;;16.35;57.21;100808.80;104067;1279;95688;-76
2022/05/06 03:31:31;;;;;;;0.40;0.10;;;;;;;16.42;57.19;100811.95;103999;1279;140317;-81
2022/05/06 03:34:03;;;;;;;0.40;0.20;;;;;;;16.45;57.23;100815.38;104101;1279;110275;-76
2022/05/06 03:36:36;;;;;;;0.40;0.10;;;;;;;16.41;57.60;100813.76;103997;1279;141474;-79
2022/05/06 03:39:07;;;;;;;0.40;0.20;;;;;;;16.35;57.90;100814.95;104057;1279;109818;-77
2022/05/06 03:41:46;;;;;;;0.40;0.20;;;;;;;16.34;57.83;100819.45;104028;1279;95343;-80
2022/05/06 03:44:15;;;;;;;0.40;0.20;;;;;;;16.35;58.08;100821.56;103702;1279;140530;-84
2022/05/06 03:46:45;;;;;;;0.40;0.20;;;;;;;16.34;58.03;100825.20;104043;1279;109149;-79
2022/05/06 03:49:18;;;;;;;0.40;0.20;;;;;;;16.30;58.19;100831.65;103731;1280;140614;-77
2022/05/06 03:51:47;;;;;;;0.40;0.20;;;;;;;16.26;58.19;100833.25;103979;1279;107750;-76
2022/05/06 03:54:18;;;;;;;0.40;0.20;;;;;;;16.31;58.31;100831.42;103693;1279;142135;-77
2022/05/06 03:56:47;;;;;;;0.40;0.10;;;;;;;16.28;58.25;100833.31;104133;1279;95791;-76
2022/05/06 03:59:15;;;;;;;0.40;0.20;;;;;;;16.33;57.99;100839.73;104059;1279;110117;-76
2022/05/06 04:01:47;;;;;;;0.40;0.10;;;;;;;16.35;57.84;100843.58;103962;1279;140531;-78
2022/05/06 04:04:22;;;;;;;0.40;0.20;;;;;;;16.35;57.99;100843.44;104059;1279;109746;-76
2022/05/06 04:06:50;;;;;;;0.40;0.10;;;;;;;16.46;57.77;100843.33;103684;1281;140457;-77
2022/05/06 04:09:20;;;;;;;0.40;0.20;;;;;;;16.46;57.64;100847.79;104026;1279;95591;-75
2022/05/06 04:11:48;;;;;;;0.40;0.10;;;;;;;16.49;57.46;100851.80;104003;1280;110268;-86
2022/05/06 04:14:16;;;;;;;0.40;0.20;;;;;;;16.36;57.43;100856.29;103464;1279;339848;-77
2022/05/06 04:16:46;;;;;;;0.40;0.10;;;;;;;16.37;57.46;100861.06;104018;1279;109762;-79
2022/05/06 04:19:22;;;;;;;0.40;0.20;;;;;;;16.39;57.49;100862.98;103699;1279;139771;-75
2022/05/06 04:24:43;;;;;;;0.40;0.20;;;;;;;16.23;57.72;100867.60;103975;1280;139362;-77
2022/05/06 04:27:10;;;;;;;0.40;0.20;;;;;;;16.16;57.80;100868.79;104036;1279;100134;-77
2022/05/06 04:29:39;;;;;;;0.40;0.20;;;;;;;16.17;58.18;100866.23;104220;1279;109323;-80
2022/05/06 04:32:07;;;;;;;0.40;0.20;;;;;;;16.18;58.14;100867.25;104093;1279;138771;-76
2022/05/06 04:34:35;;;;;;;0.40;0.10;;;;;;;16.30;57.81;100873.20;104165;1279;95232;-80
2022/05/06 04:37:03;;;;;;;0.40;0.20;;;;;;;16.44;57.26;100877.82;104360;1279;138997;-80
2022/05/06 04:39:32;;;;;;;0.40;0.20;;;;;;;16.47;57.13;100876.96;104191;1279;100177;-80
2022/05/06 04:42:00;;;;;;;0.40;0.10;;;;;;;16.47;57.41;100883.23;104072;1279;108253;-84
2022/05/06 04:44:31;;;;;;;0.40;0.20;;;;;;;16.54;57.22;100881.48;104144;1279;141115;-78
2022/05/06 04:46:59;;;;;;;0.40;0.20;;;;;;;16.59;57.20;100881.65;104347;1279;95781;-77
2022/05/06 04:49:28;;;;;;;0.40;0.10;;;;;;;16.62;56.97;100885.27;106325;1277;139887;-77
2022/05/06 04:51:56;;;;;;;0.40;0.20;;;;;;;16.66;56.58;100878.80;104015;1279;98360;-77
2022/05/06 04:54:24;;;;;;;0.40;0.10;;;;;;;16.67;56.42;100878.05;104003;1279;140930;-78
2022/05/06 04:56:53;;;;;;;0.40;0.20;;;;;;;16.67;56.55;100881.82;104222;1279;96146;-76
2022/05/06 04:59:29;;;;;;;0.40;0.20;;;;;;;16.67;56.89;100881.66;104170;1279;96370;-77
2022/05/06 05:01:57;;;;;;;0.40;0.20;;;;;;;16.59;56.72;100891.14;104013;1279;139991;-84
2022/05/06 05:04:28;;;;;;;0.40;0.20;;;;;;;16.57;56.84;100893.38;104071;1279;99832;-76
2022/05/06 05:07:04;;;;;;;0.40;0.20;;;;;;;16.56;56.85;100891.09;103987;1279;140728;-76
2022/05/06 05:09:33;;;;;;;0.40;0.20;;;;;;;16.51;57.10;100888.59;104080;1279;95760;-76
2022/05/06 05:12:01;;;;;;;0.40;0.20;;;;;;;16.56;57.08;100889.64;103815;1279;95292;-86
2022/05/06 05:14:35;;;;;;;0.40;0.20;;;;;;;16.54;56.81;100891.37;103739;1279;139944;-78
2022/05/06 05:17:04;;;;;;;0.40;0.20;;;;;;;16.46;57.13;100892.41;104162;1279;98381;-77
2022/05/06 05:19:32;;;;;;;0.40;0.20;;;;;;;16.51;57.27;100894.16;103992;1279;140067;-78
2022/05/06 05:22:01;;;;;;;0.40;0.20;;;;;;;16.53;57.24;100896.39;104091;1279;95250;-76
2022/05/06 05:24:30;;;;;;;0.40;0.20;;;;;;;16.58;57.13;100902.32;103883;1279;141139;-76
2022/05/06 05:26:59;;;;;;;0.40;0.20;;;;;;;16.57;56.97;100903.79;103901;1279;110585;-77
2022/05/06 05:29:30;;;;;;;0.40;0.20;;;;;;;16.55;56.77;100904.23;104066;1279;100061;-77
2022/05/06 05:31:58;;;;;;;0.40;0.20;;;;;;;16.51;56.61;100908.15;103748;1281;138658;-80
2022/05/06 05:34:26;;;;;;;0.40;0.20;;;;;;;16.46;56.65;100913.19;103798;1279;95668;-76
2022/05/06 05:36:54;;;;;;;0.40;0.20;;;;;;;16.42;56.54;100909.62;103998;1279;138738;-78
2022/05/06 05:39:22;;;;;;;0.40;0.20;;;;;;;16.34;56.58;100916.59;104046;1279;109810;-74
2022/05/06 05:41:52;;;;;;;0.40;0.20;;;;;;;16.31;56.46;100920.31;104499;1281;99859;-87
2022/05/06 05:49:56;;;;;;;0.40;0.20;;;;;;;16.34;56.64;100926.25;104096;1279;140332;-77
2022/05/06 05:52:25;;;;;;;0.40;0.20;;;;;;;16.40;56.13;100925.13;104295;1279;110146;-76
2022/05/06 05:54:53;;;;;;;0.40;0.20;;;;;;;16.41;56.29;100924.73;103852;1279;141060;-77
2022/05/06 05:57:21;;;;;;;0.40;0.10;;;;;;;16.47;55.98;100926.25;104089;1279;107989;-75
2022/05/06 05:59:49;;;;;;;0.40;0.20;;;;;;;16.44;55.79;100931.56;104246;1279;95760;-79
2022/05/06 06:02:18;;;;;;;0.40;0.20;;;;;;;16.42;55.83;100934.90;103947;1279;140092;-77
2022/05/06 06:04:49;;;;;;;0.40;0.20;;;;;;;16.44;55.91;100932.99;104082;1279;110289;-75
2022/05/06 06:07:18;;;;;;;0.40;0.20;;;;;;;16.43;55.60;100929.66;104039;1279;140151;-76
2022/05/06 06:09:52;;;;;;;0.40;0.20;;;;;;;16.40;55.86;100934.44;104024;1279;109813;-79
2022/05/06 06:12:20;;;;;;;0.40;0.20;;;;;;;16.39;55.81;100932.15;103994;1279;141052;-76
2022/05/06 06:14:49;;;;;;;0.40;0.20;;;;;;;16.36;55.85;100929.74;104174;1279;95239;-82
2022/05/06 06:17:17;;;;;;;0.40;0.20;;;;;;;16.38;55.70;100927.52;104118;1279;109246;-77
2022/05/06 06:19:45;;;;;;;0.40;0.20;;;;;;;16.41;55.82;100932.58;103951;1279;138363;-82
2022/05/06 06:22:13;;;;;;;0.40;0.20;;;;;;;16.45;55.64;100936.38;103867;1279;109322;-77
2022/05/06 06:25:00;;;;;;;0.40;0.20;;;;;;;16.45;55.85;100941.19;103935;1279;138841;-78
2022/05/06 06:27:28;;;;;;;0.40;0.20;;;;;;;16.47;55.81;100943.25;104062;1279;95241;-75
2022/05/06 06:30:00;;;;;;;0.40;0.10;;;;;;;16.45;55.70;100940.32;103923;1280;108551;-81
2022/05/06 06:32:28;;;;;;;0.40;0.10;;;;;;;16.41;55.81;100948.02;104037;1279;140186;-78
2022/05/06 06:34:57;;;;;;;0.40;0.20;;;;;;;16.37;55.95;100950.15;104061;1279;109269;-76
2022/05/06 06:37:32;;;;;;;0.40;0.20;;;;;;;16.38;56.08;100952.24;103732;1280;140163;-76
2022/05/06 06:40:02;;;;;;;0.40;0.20;;;;;;;16.40;56.03;100953.06;103851;1279;95597;-76
2022/05/06 06:42:30;;;;;;;0.40;0.20;;;;;;;16.35;56.09;100958.30;103999;1278;139304;-77
2022/05/06 06:45:21;;;;;;;0.40;0.20;;;;;;;16.37;56.04;100954.09;103825;1280;99708;-75
2022/05/06 06:47:55;;;;;;;0.40;0.20;;;;;;;16.29;56.39;100951.73;104143;1279;109266;-76
2022/05/06 06:50:39;;;;;;;0.40;0.20;;;;;;;16.27;56.78;100953.05;103898;1279;140230;-75
2022/05/06 06:53:29;;;;;;;0.40;0.20;;;;;;;16.30;56.88;100951.31;104085;1279;95221;-78
2022/05/06 06:55:57;;;;;;;0.40;0.20;;;;;;;16.35;56.67;100949.50;103932;1277;138733;-75
2022/05/06 06:58:25;;;;;;;0.40;0.20;;;;;;;16.47;56.63;100947.38;104043;1279;98373;-77
2022/05/06 07:00:53;;;;;;;0.40;0.20;;;;;;;16.59;56.48;100952.45;103937;1279;138965;-85
2022/05/06 07:03:24;;;;;;;0.40;0.20;;;;;;;16.72;56.24;100952.95;104100;1279;95661;-83
2022/05/06 07:14:11;;;;;;;0.40;0.20;;;;;;;16.93;55.55;100952.29;104157;1279;109285;-75
2022/05/06 07:16:39;;;;;;;0.40;0.20;;;;;;;17.11;55.52;100950.59;104114;1279;142670;-78
2022/05/06 07:19:07;;;;;;;0.40;0.20;;;;;;;17.41;54.81;100951.21;104105;1279;95191;-75
2022/05/06 07:21:38;;;;;;;0.40;0.10;;;;;;;17.76;54.31;100949.77;104037;1281;110386;-76
2022/05/06 07:24:06;;;;;;;0.40;0.10;;;;;;;18.05;53.73;100956.66;103971;1281;140465;-75
2022/05/06 07:26:34;;;;;;;0.40;0.10;;;;;;;18.19;53.31;100960.32;104101;1281;109398;-75
2022/05/06 07:29:02;;;;;;;0.40;0.10;;;;;;;18.06;52.71;100962.38;103945;1281;141516;-75
2022/05/06 07:31:31;;;;;;;0.40;0.10;;;;;;;17.93;52.82;100967.14;104096;1281;95717;-78
2022/05/06 07:33:59;;;;;;;0.40;0.20;;;;;;;17.88;53.08;100968.05;103827;1281;110130;-75
2022/05/06 07:36:26;;;;;;;0.40;0.10;;;;;;;17.84;53.33;100964.30;104016;1281;139893;-74
2022/05/06 07:38:54;;;;;;;0.40;0.10;;;;;;;17.91;53.29;100968.11;104087;1281;109245;-77
2022/05/06 07:41:22;;;;;;;0.40;0.10;;;;;;;17.97;53.30;100966.40;104048;1281;138337;-79
2022/05/06 07:43:50;;;;;;;0.40;0.10;;;;;;;18.06;53.44;100967.39;104106;1281;95228;-76
2022/05/06 07:46:17;;;;;;;0.40;0.20;;;;;;;18.21;53.15;100970.48;104069;1281;110242;-83
2022/05/06 07:48:46;;;;;;;0.40;0.10;;;;;;;18.34;52.89;100965.35;103953;1281;139374;-85
2022/05/06 07:51:13;;;;;;;0.40;0.10;;;;;;;18.41;52.46;100971.27;104065;1281;108442;-74
2022/05/06 07:53:41;;;;;;;0.40;0.10;;;;;;;18.50;52.41;100976.41;103866;1281;140288;-74
2022/05/06 07:56:09;;;;;;;0.40;0.10;;;;;;;18.77;52.01;100977.91;104096;1281;95233;-75
2022/05/06 07:58:40;;;;;;;0.40;0.10;;;;;;;19.14;51.86;100974.58;103930;1281;138877;-74
2022/05/06 08:01:07;;;;;;;0.40;0.10;;;;;;;19.39;50.66;100976.33;104055;1281;99827;-79
2022/05/06 08:06:22;;;;;;;0.40;0.10;;;;;;;19.59;49.42;100973.81;103987;1281;138796;-75
2022/05/06 08:08:50;;;;;;;0.40;0.10;;;;;;;19.69;49.71;100976.30;104093;1281;95866;-81
2022/05/06 08:11:18;;;;;;;0.40;0.10;;;;;;;19.79;49.42;100977.54;103925;1281;139570;-75
2022/05/06 08:13:45;;;;;;;0.40;0.10;;;;;;;19.99;49.41;100974.52;104066;1281;97937;-74
2022/05/06 08:16:13;;;;;;;0.40;0.10;;;;;;;20.14;48.54;100975.13;104070;1280;108299;-75
2022/05/06 08:18:41;;;;;;;0.40;0.10;;;;;;;20.06;47.76;100973.73;103931;1281;138819;-75
2022/05/06 08:21:09;;;;;;;0.40;0.10;;;;;;;20.12;48.19;100973.98;104093;1279;95142;-78
2022/05/06 08:23:37;;;;;;;0.40;0.10;;;;;;;20.17;48.30;100975.47;103964;1279;139997;-77
2022/05/06 08:26:05;;;;;;;0.40;0.10;;;;;;;20.21;48.39;100977.60;104101;1279;99810;-76
2022/05/06 08:28:33;;;;;;;0.40;0.10;;;;;;;20.15;48.56;100976.30;104068;1279;109249;-79
2022/05/06 08:31:02;;;;;;;0.40;0.10;;;;;;;20.11;48.67;100974.91;104115;1278;95496;-75
2022/05/06 08:33:29;;;;;;;0.40;0.10;;;;;;;20.08;48.41;100980.50;104089;1279;95241;-76
2022/05/06 08:35:58;;;;;;;0.40;0.10;;;;;;;19.97;48.48;100983.27;103963;1279;138560;-75
2022/05/06 08:38:26;;;;;;;0.40;0.10;;;;;;;20.01;48.64;100986.98;104115;1279;99911;-79
2022/05/06 08:40:54;;;;;;;0.40;0.10;;;;;;;20.32;48.47;100986.14;104028;1279;140364;-77
2022/05/06 08:43:22;;;;;;;0.40;0.10;;;;;;;20.43;48.22;100984.42;104011;1280;95897;-77
2022/05/06 08:51:31;;;;;;;0.40;0.10;;;;;;;20.58;47.50;100983.02;104327;1278;100165;-80
2022/05/06 08:54:01;;;;;;;0.40;0.10;;;;;;;20.84;47.54;100982.23;104639;1279;139865;-81
2022/05/06 08:56:30;;;;;;;0.40;0.10;;;;;;;21.02;47.23;100980.29;105436;1278;95528;-83
2022/05/06 08:58:59;;;;;;;0.40;0.10;;;;;;;21.27;46.64;100979.10;105265;1277;140141;-79
2022/05/06 09:01:26;;;;;;;0.40;0.10;;;;;;;21.56;46.64;100978.41;105305;1278;110283;-81
2022/05/06 09:03:56;;;;;;;0.40;0.10;;;;;;;21.76;45.98;100977.14;105292;1278;98952;-82
2022/05/06 09:06:26;;;;;;;0.40;0.10;;;;;;;21.73;45.49;100978.02;105269;1279;139117;-75
2022/05/06 09:08:59;;;;;;;0.40;0.10;;;;;;;21.70;44.97;100983.84;104424;1279;95239;-82
2022/05/06 09:14:17;;;;;;;0.40;0.10;;;;;;;22.32;44.21;100977.50;104357;1279;110182;-82
2022/05/06 09:16:46;;;;;;;0.40;0.10;;;;;;;22.58;43.89;100977.63;104629;1279;139161;-79
2022/05/06 09:19:23;;;;;;;0.40;0.10;;;;;;;22.93;43.67;100982.46;104888;1279;108584;-79
2022/05/06 09:22:13;;;;;;;0.40;0.10;;;;;;;24.13;41.12;100974.30;104997;1278;96556;-78
2022/05/06 09:24:42;;;;;;;0.40;0.10;;;;;;;25.08;39.63;100977.70;104025;1279;139512;-78
2022/05/06 09:27:16;;;;;;;0.40;0.10;;;;;;;25.86;37.52;100973.67;104149;1280;107794;-78
2022/05/06 09:29:44;;;;;;;0.40;0.00;;;;;;;26.76;36.63;100971.50;104186;1281;139433;-80
2022/05/06 09:32:28;;;;;;;0.40;0.00;;;;;;;27.44;35.55;100970.17;104177;1279;109243;-79
2022/05/06 09:35:10;;;;;;;0.40;0.00;;;;;;;28.01;34.25;100964.46;104176;1279;140700;-79
2022/05/06 09:37:42;;;;;;;0.40;0.00;;;;;;;27.59;34.32;100968.88;104543;1279;95250;-79
2022/05/06 09:40:12;;;;;;;0.40;0.00;;;;;;;26.95;34.17;100972.23;104785;1279;110607;-79
2022/05/06 09:43:00;;;;;;;0.40;0.00;;;;;;;27.46;34.13;100970.56;104282;1279;137264;-78
2022/05/06 09:45:39;;;;;;;0.40;0.00;;;;;;;28.27;32.81;100958.21;104416;1280;108888;-79
2022/05/06 09:48:11;;;;;;;0.40;0.00;;;;;;;28.09;33.17;100960.39;104233;1280;139305;-80
2022/05/06 09:50:44;;;;;;;0.40;0.00;;;;;;;28.49;31.94;100962.36;104467;1278;95618;-80
2022/05/06 09:53:21;;;;;;;0.40;0.00;;;;;;;27.95;32.55;100963.86;104298;1278;141240;-79
2022/05/06 09:55:49;;;;;;;0.40;0.00;;;;;;;27.16;33.34;100966.27;104770;1278;100070;-81
2022/05/06 09:58:17;;;;;;;0.40;0.00;;;;;;;27.29;33.56;100963.63;104417;1278;109224;-80
2022/05/06 10:00:45;;;;;;;0.40;0.00;;;;;;;27.94;32.15;100961.02;105161;1278;140965;-79
2022/05/06 10:03:13;;;;;;;0.40;0.00;;;;;;;28.21;31.70;100957.50;104586;1279;95329;-79
2022/05/06 10:05:41;;;;;;;0.40;0.00;;;;;;;28.41;31.38;100957.70;104230;1278;138742;-78
2022/05/06 10:08:18;;;;;;;0.40;0.00;;;;;;;28.81;30.90;100957.79;104258;1278;98918;-78
2022/05/06 10:10:56;;;;;;;0.40;0.00;;;;;;;28.71;31.02;100958.39;104168;1278;139792;-81
2022/05/06 10:13:27;;;;;;;0.40;0.00;;;;;;;28.50;31.39;100963.07;104251;1280;95306;-78
2022/05/06 10:15:55;;;;;;;0.40;0.00;;;;;;;28.79;31.00;100957.92;103919;1281;95122;-78
2022/05/06 10:18:33;;;;;;;0.40;0.00;;;;;;;28.84;31.00;100953.11;104134;1279;139585;-78
2022/05/06 10:21:03;;;;;;;0.40;0.00;;;;;;;28.56;31.32;100955.16;104349;1280;99303;-78
2022/05/06 10:23:45;;;;;;;0.40;0.00;;;;;;;28.09;31.33;100959.11;104105;1281;139561;-78
2022/05/06 10:26:39;;;;;;;0.40;0.00;;;;;;;27.29;32.10;100968.42;104244;1281;95211;-78
2022/05/06 10:32:25;;;;;;;0.40;0.00;;;;;;;26.28;33.74;100968.84;104237;1279;109316;-78
2022/05/06 10:35:15;;;;;;;0.40;0.00;;;;;;;26.58;33.47;100969.78;105044;1280;141316;-78
2022/05/06 10:37:45;;;;;;;0.40;0.00;;;;;;;26.33;33.64;100966.23;104283;1280;106571;-78
2022/05/06 10:40:25;;;;;;;0.40;0.00;;;;;;;26.02;34.32;100958.94;104202;1281;95731;-77
2022/05/06 10:42:53;;;;;;;0.40;0.00;;;;;;;26.25;34.25;100958.70;103925;1279;138304;-78
2022/05/06 10:45:32;;;;;;;0.40;0.00;;;;;;;26.37;34.33;100956.94;104092;1281;110620;-78
2022/05/06 10:48:00;;;;;;;0.40;0.00;;;;;;;26.44;34.03;100958.91;104244;1279;140138;-79
2022/05/06 10:50:37;;;;;;;0.40;0.00;;;;;;;26.62;32.93;100960.16;104235;1280;108676;-79
2022/05/06 10:53:06;;;;;;;0.40;0.00;;;;;;;27.31;32.20;100959.33;104399;1281;138554;-78
2022/05/06 10:55:34;;;;;;;0.40;0.00;;;;;;;27.35;32.27;100959.34;104210;1281;95857;-79
2022/05/06 10:58:05;;;;;;;0.40;0.00;;;;;;;27.04;32.90;100959.64;104079;1281;108999;-78
2022/05/06 11:00:37;;;;;;;0.40;0.00;;;;;;;26.52;33.52;100961.34;104373;1281;140726;-79
2022/05/06 11:03:05;;;;;;;0.40;0.00;;;;;;;25.94;34.05;100963.98;105111;1281;109229;-80
2022/05/06 11:05:33;;;;;;;0.40;0.00;;;;;;;25.58;34.62;100965.20;104996;1279;139189;-80
2022/05/06 11:08:02;;;;;;;0.40;0.00;;;;;;;25.20;35.50;100969.50;104445;1281;95119;-79
2022/05/06 11:10:33;;;;;;;0.40;0.00;;;;;;;24.85;35.60;100967.48;104372;1280;109176;-79
2022/05/06 11:13:23;;;;;;;0.40;0.00;;;;;;;24.65;36.52;100969.03;104361;1281;99910;-81
2022/05/06 11:15:51;;;;;;;0.40;0.00;;;;;;;24.78;36.99;100963.30;104206;1280;109265;-78
2022/05/06 11:18:19;;;;;;;0.40;0.00;;;;;;;24.88;36.94;100962.67;104136;1279;139196;-78
2022/05/06 11:20:47;;;;;;;0.40;0.00;;;;;;;24.94;36.45;100960.60;104074;1281;95400;-77
2022/05/06 11:23:15;;;;;;;0.40;0.10;;;;;;;24.80;36.27;100960.97;104121;1281;140511;-82
2022/05/06 11:25:48;;;;;;;0.40;0.00;;;;;;;24.63;35.16;100962.62;104414;1281;100024;-79
2022/05/06 11:28:24;;;;;;;0.40;0.00;;;;;;;24.28;34.87;100961.97;104355;1279;109427;-82
2022/05/06 11:30:53;;;;;;;0.40;0.00;;;;;;;24.09;34.62;100968.63;104724;1279;139009;-79
2022/05/06 11:33:31;;;;;;;0.40;0.10;;;;;;;23.84;33.34;100966.62;104793;1280;95226;-80
2022/05/06 11:36:02;;;;;;;0.40;0.00;;;;;;;23.63;35.14;100967.41;104272;1280;138599;-79
2022/05/06 11:38:33;;;;;;;0.40;0.10;;;;;;;23.62;35.48;100965.13;104432;1281;99840;-80
2022/05/06 11:41:11;;;;;;;0.40;0.00;;;;;;;23.53;35.10;100961.62;104785;1279;138713;-80
2022/05/06 11:43:42;;;;;;;0.40;0.10;;;;;;;23.45;36.30;100958.20;104611;1281;95522;-79
2022/05/06 11:49:04;;;;;;;0.40;0.10;;;;;;;23.39;36.97;100958.95;104436;1281;110809;-79
2022/05/06 11:51:42;;;;;;;0.40;0.10;;;;;;;23.34;37.40;100961.46;104514;1279;98905;-78
2022/05/06 11:54:11;;;;;;;0.40;0.10;;;;;;;23.13;37.44;100965.11;105135;1281;137985;-79
2022/05/06 11:56:39;;;;;;;0.40;0.00;;;;;;;23.07;37.73;100960.30;104233;1280;95322;-80
2022/05/06 11:59:09;;;;;;;0.40;0.10;;;;;;;23.03;37.60;100964.55;104204;1279;139389;-79
2022/05/06 12:01:38;;;;;;;0.40;0.10;;;;;;;22.97;37.31;100960.81;104316;1279;110402;-79
2022/05/06 12:04:09;;;;;;;0.40;0.10;;;;;;;22.89;36.24;100962.27;104488;1279;100464;-80
2022/05/06 12:06:41;;;;;;;0.40;0.10;;;;;;;22.75;36.56;100961.02;104784;1280;138657;-79
2022/05/06 12:09:24;;;;;;;0.40;0.10;;;;;;;22.70;35.32;100958.83;104725;1279;95137;-80